sensor_id;sensor_type;location;lat;lon;timestamp;temperature;humidity
8882;DHT22;4477;48.736;9.176;2023-02-15T00:01:07;-2.80;99.90
8882;DHT22;4477;48.736;9.176;2023-02-15T00:03:34;-3.00;99.90
8882;DHT22;4477;48.736;9.176;2023-02-15T00:06:02;-3.00;99.90
8882;DHT22;4477;48.736;9.176;2023-02-15T00:08:30;-3.10;99.90
8882;DHT22;4477;48.736;9.176;2023-02-15T00:11:04;-3.00;99.90
8882;DHT22;4477;48.736;9.176;2023-02-15T00:13:31;-3.10;99.90
8882;DHT22;4477;48.736;9.176;2023-02-15T00:16:01;-3.10;99.90
8882;DHT22;4477;48.736;9.176;2023-02-15T00:18:28;-3.00;99.90
8882;DHT22;4477;48.736;9.176;2023-02-15T00:20:55;-3.10;99.90
8882;DHT22;4477;48.736;9.176;2023-02-15T00:23:23;-3.10;99.90
8882;DHT22;4477;48.736;9.176;2023-02-15T00:25:50;-2.90;99.90
8882;DHT22;4477;48.736;9.176;2023-02-15T00:28:16;-2.90;99.90
8882;DHT22;4477;48.736;9.176;2023-02-15T00:30:43;-2.80;99.90
8882;DHT22;4477;48.736;9.176;2023-02-15T00:33:10;-2.80;99.90
8882;DHT22;4477;48.736;9.176;2023-02-15T00:35:37;-3.00;99.90
8882;DHT22;4477;48.736;9.176;2023-02-15T00:38:04;-3.20;99.90
8882;DHT22;4477;48.736;9.176;2023-02-15T00:40:32;-3.10;99.90
8882;DHT22;4477;48.736;9.176;2023-02-15T00:42:59;-3.10;99.90
8882;DHT22;4477;48.736;9.176;2023-02-15T00:45:26;-3.10;99.90
8882;DHT22;4477;48.736;9.176;2023-02-15T00:47:52;-3.10;99.90
8882;DHT22;4477;48.736;9.176;2023-02-15T00:50:19;-3.20;99.90
8882;DHT22;4477;48.736;9.176;2023-02-15T00:52:46;-3.20;99.90
8882;DHT22;4477;48.736;9.176;2023-02-15T00:55:13;-3.30;99.90
8882;DHT22;4477;48.736;9.176;2023-02-15T00:57:42;-3.40;99.90
8882;DHT22;4477;48.736;9.176;2023-02-15T01:00:10;-3.50;99.90
8882;DHT22;4477;48.736;9.176;2023-02-15T01:02:37;-3.60;99.90
8882;DHT22;4477;48.736;9.176;2023-02-15T01:05:04;-3.60;99.90
8882;DHT22;4477;48.736;9.176;2023-02-15T01:07:31;-3.70;99.90
8882;DHT22;4477;48.736;9.176;2023-02-15T01:09:58;-3.70;99.90
8882;DHT22;4477;48.736;9.176;2023-02-15T01:12:25;-3.60;99.90
8882;DHT22;4477;48.736;9.176;2023-02-15T01:14:53;-3.50;99.90
8882;DHT22;4477;48.736;9.176;2023-02-15T01:17:20;-3.40;99.90
8882;DHT22;4477;48.736;9.176;2023-02-15T01:19:46;-3.30;99.90
8882;DHT22;4477;48.736;9.176;2023-02-15T01:22:13;-3.30;99.90
8882;DHT22;4477;48.736;9.176;2023-02-15T01:24:41;-3.30;99.90
8882;DHT22;4477;48.736;9.176;2023-02-15T01:27:08;-3.40;99.90
8882;DHT22;4477;48.736;9.176;2023-02-15T01:29:35;-3.50;99.90
8882;DHT22;4477;48.736;9.176;2023-02-15T01:32:03;-3.50;99.90
8882;DHT22;4477;48.736;9.176;2023-02-15T01:34:30;-3.50;99.90
8882;DHT22;4477;48.736;9.176;2023-02-15T01:36:57;-3.50;99.90
8882;DHT22;4477;48.736;9.176;2023-02-15T01:39:24;-3.50;99.90
8882;DHT22;4477;48.736;9.176;2023-02-15T01:41:51;-3.50;99.90
8882;DHT22;4477;48.736;9.176;2023-02-15T01:44:46;-3.50;99.90
8882;DHT22;4477;48.736;9.176;2023-02-15T01:47:16;-3.30;99.90
8882;DHT22;4477;48.736;9.176;2023-02-15T01:49:45;-3.20;99.90
8882;DHT22;4477;48.736;9.176;2023-02-15T01:52:14;-3.30;99.90
8882;DHT22;4477;48.736;9.176;2023-02-15T01:54:45;-3.30;99.90
8882;DHT22;4477;48.736;9.176;2023-02-15T01:57:16;-3.30;99.90
8882;DHT22;4477;48.736;9.176;2023-02-15T01:59:47;-3.30;99.90
8882;DHT22;4477;48.736;9.176;2023-02-15T02:02:18;-3.30;99.90
8882;DHT22;4477;48.736;9.176;2023-02-15T02:04:49;-3.40;99.90
8882;DHT22;4477;48.736;9.176;2023-02-15T02:07:18;-3.40;99.90
8882;DHT22;4477;48.736;9.176;2023-02-15T02:09:46;-3.40;99.90
8882;DHT22;4477;48.736;9.176;2023-02-15T02:12:14;-3.40;99.90
8882;DHT22;4477;48.736;9.176;2023-02-15T02:14:42;-3.40;99.90
8882;DHT22;4477;48.736;9.176;2023-02-15T02:17:14;-3.40;99.90
8882;DHT22;4477;48.736;9.176;2023-02-15T02:20:03;-3.40;99.90
8882;DHT22;4477;48.736;9.176;2023-02-15T02:23:07;-3.50;99.90
8882;DHT22;4477;48.736;9.176;2023-02-15T02:29:04;-3.40;99.90
8882;DHT22;4477;48.736;9.176;2023-02-15T02:31:44;-3.40;99.90
8882;DHT22;4477;48.736;9.176;2023-02-15T02:34:14;-3.30;99.90
8882;DHT22;4477;48.736;9.176;2023-02-15T02:36:49;-3.40;99.90
8882;DHT22;4477;48.736;9.176;2023-02-15T02:39:28;-3.40;99.90
8882;DHT22;4477;48.736;9.176;2023-02-15T02:42:01;-3.50;99.90
8882;DHT22;4477;48.736;9.176;2023-02-15T02:44:33;-3.60;99.90
8882;DHT22;4477;48.736;9.176;2023-02-15T02:47:08;-3.60;99.90
8882;DHT22;4477;48.736;9.176;2023-02-15T02:49:39;-3.50;99.90
8882;DHT22;4477;48.736;9.176;2023-02-15T02:52:31;-3.50;99.90
8882;DHT22;4477;48.736;9.176;2023-02-15T02:54:54;-3.60;99.90
8882;DHT22;4477;48.736;9.176;2023-02-15T02:57:23;-3.60;99.90
8882;DHT22;4477;48.736;9.176;2023-02-15T02:59:51;-3.70;99.90
8882;DHT22;4477;48.736;9.176;2023-02-15T03:02:21;-3.80;99.90
8882;DHT22;4477;48.736;9.176;2023-02-15T03:04:56;-3.80;99.90
8882;DHT22;4477;48.736;9.176;2023-02-15T03:07:30;-3.70;99.90
8882;DHT22;4477;48.736;9.176;2023-02-15T03:10:04;-3.70;99.90
8882;DHT22;4477;48.736;9.176;2023-02-15T03:12:34;-3.70;99.90
8882;DHT22;4477;48.736;9.176;2023-02-15T03:15:04;-3.70;99.90
8882;DHT22;4477;48.736;9.176;2023-02-15T03:17:34;-3.60;99.90
8882;DHT22;4477;48.736;9.176;2023-02-15T03:20:06;-3.60;99.90
8882;DHT22;4477;48.736;9.176;2023-02-15T03:22:36;-3.60;99.90
8882;DHT22;4477;48.736;9.176;2023-02-15T03:25:06;-3.60;99.90
8882;DHT22;4477;48.736;9.176;2023-02-15T03:27:38;-3.50;99.90
8882;DHT22;4477;48.736;9.176;2023-02-15T03:30:09;-3.60;99.90
8882;DHT22;4477;48.736;9.176;2023-02-15T03:32:39;-3.60;99.90
8882;DHT22;4477;48.736;9.176;2023-02-15T03:35:08;-3.70;99.90
8882;DHT22;4477;48.736;9.176;2023-02-15T03:37:39;-3.60;99.90
8882;DHT22;4477;48.736;9.176;2023-02-15T03:40:10;-3.50;99.90
8882;DHT22;4477;48.736;9.176;2023-02-15T03:42:59;-3.40;99.90
8882;DHT22;4477;48.736;9.176;2023-02-15T03:45:30;-3.30;99.90
8882;DHT22;4477;48.736;9.176;2023-02-15T03:47:59;-3.30;99.90
8882;DHT22;4477;48.736;9.176;2023-02-15T03:50:30;-3.30;99.90
8882;DHT22;4477;48.736;9.176;2023-02-15T03:53:18;-3.20;99.90
8882;DHT22;4477;48.736;9.176;2023-02-15T03:55:47;-3.20;99.90
8882;DHT22;4477;48.736;9.176;2023-02-15T03:58:13;-3.20;99.90
8882;DHT22;4477;48.736;9.176;2023-02-15T04:01:00;-3.30;99.90
8882;DHT22;4477;48.736;9.176;2023-02-15T04:03:51;-3.40;99.90
8882;DHT22;4477;48.736;9.176;2023-02-15T04:06:23;-3.40;99.90
8882;DHT22;4477;48.736;9.176;2023-02-15T04:08:50;-3.50;99.90
8882;DHT22;4477;48.736;9.176;2023-02-15T04:11:34;-3.60;99.90
8882;DHT22;4477;48.736;9.176;2023-02-15T04:14:01;-3.60;99.90
8882;DHT22;4477;48.736;9.176;2023-02-15T04:16:47;-3.60;99.90
8882;DHT22;4477;48.736;9.176;2023-02-15T04:19:13;-3.70;99.90
8882;DHT22;4477;48.736;9.176;2023-02-15T04:21:59;-3.80;99.90
8882;DHT22;4477;48.736;9.176;2023-02-15T04:24:43;-3.80;99.90
8882;DHT22;4477;48.736;9.176;2023-02-15T04:27:27;-3.80;99.90
8882;DHT22;4477;48.736;9.176;2023-02-15T04:29:54;-4.00;99.90
8882;DHT22;4477;48.736;9.176;2023-02-15T04:32:21;-4.00;99.90
8882;DHT22;4477;48.736;9.176;2023-02-15T04:34:48;-4.00;99.90
8882;DHT22;4477;48.736;9.176;2023-02-15T04:37:16;-4.10;99.90
8882;DHT22;4477;48.736;9.176;2023-02-15T04:39:43;-4.20;99.90
8882;DHT22;4477;48.736;9.176;2023-02-15T04:42:09;-4.20;99.90
8882;DHT22;4477;48.736;9.176;2023-02-15T04:44:36;-4.40;99.90
8882;DHT22;4477;48.736;9.176;2023-02-15T04:47:03;-4.40;99.90
8882;DHT22;4477;48.736;9.176;2023-02-15T08:08:12;-4.40;99.90
8882;DHT22;4477;48.736;9.176;2023-02-15T08:10:57;-1.20;99.90
8882;DHT22;4477;48.736;9.176;2023-02-15T09:08:02;-1.00;99.90
8882;DHT22;4477;48.736;9.176;2023-02-15T09:12:56;7.10;99.90
8882;DHT22;4477;48.736;9.176;2023-02-15T09:15:23;7.40;99.90
8882;DHT22;4477;48.736;9.176;2023-02-15T09:25:13;7.60;99.90
8882;DHT22;4477;48.736;9.176;2023-02-15T09:27:40;8.60;99.90
8882;DHT22;4477;48.736;9.176;2023-02-15T09:32:34;8.30;98.10
8882;DHT22;4477;48.736;9.176;2023-02-15T10:41:48;8.80;93.80
8882;DHT22;4477;48.736;9.176;2023-02-15T10:44:33;10.60;65.40
8882;DHT22;4477;48.736;9.176;2023-02-15T10:47:20;11.00;64.30
8882;DHT22;4477;48.736;9.176;2023-02-15T10:50:10;11.30;63.30
8882;DHT22;4477;48.736;9.176;2023-02-15T10:52:46;11.50;63.20
8882;DHT22;4477;48.736;9.176;2023-02-15T10:55:26;11.50;63.00
8882;DHT22;4477;48.736;9.176;2023-02-15T10:58:03;11.70;64.30
8882;DHT22;4477;48.736;9.176;2023-02-15T11:00:36;12.10;61.50
8882;DHT22;4477;48.736;9.176;2023-02-15T11:03:34;11.70;60.90
8882;DHT22;4477;48.736;9.176;2023-02-15T11:13:34;11.70;61.90
8882;DHT22;4477;48.736;9.176;2023-02-15T11:23:32;13.30;57.80
8882;DHT22;4477;48.736;9.176;2023-02-15T11:28:33;13.90;59.10
8882;DHT22;4477;48.736;9.176;2023-02-15T11:31:12;14.60;56.60
8882;DHT22;4477;48.736;9.176;2023-02-15T11:33:44;14.50;58.20
8882;DHT22;4477;48.736;9.176;2023-02-15T11:36:14;14.70;55.90
8882;DHT22;4477;48.736;9.176;2023-02-15T11:38:42;15.20;56.30
8882;DHT22;4477;48.736;9.176;2023-02-15T11:41:12;15.50;55.80
8882;DHT22;4477;48.736;9.176;2023-02-15T11:43:43;15.80;54.20
8882;DHT22;4477;48.736;9.176;2023-02-15T11:48:42;16.10;54.50
8882;DHT22;4477;48.736;9.176;2023-02-15T11:51:12;16.30;53.60
8882;DHT22;4477;48.736;9.176;2023-02-15T11:53:42;16.10;52.70
8882;DHT22;4477;48.736;9.176;2023-02-15T11:56:14;16.30;51.00
8882;DHT22;4477;48.736;9.176;2023-02-15T11:58:44;16.00;52.00
8882;DHT22;4477;48.736;9.176;2023-02-15T12:01:14;16.60;52.00
8882;DHT22;4477;48.736;9.176;2023-02-15T12:03:46;16.90;50.90
8882;DHT22;4477;48.736;9.176;2023-02-15T12:06:22;17.40;51.20
8882;DHT22;4477;48.736;9.176;2023-02-15T12:08:59;17.70;51.00
8882;DHT22;4477;48.736;9.176;2023-02-15T12:11:32;18.10;49.50
8882;DHT22;4477;48.736;9.176;2023-02-15T12:14:02;17.70;48.00
8882;DHT22;4477;48.736;9.176;2023-02-15T12:16:32;17.60;48.90
8882;DHT22;4477;48.736;9.176;2023-02-15T12:19:02;17.20;48.60
8882;DHT22;4477;48.736;9.176;2023-02-15T12:21:31;17.20;48.30
8882;DHT22;4477;48.736;9.176;2023-02-15T12:24:03;17.10;48.50
8882;DHT22;4477;48.736;9.176;2023-02-15T12:26:32;17.30;47.70
8882;DHT22;4477;48.736;9.176;2023-02-15T12:29:02;17.10;48.40
8882;DHT22;4477;48.736;9.176;2023-02-15T13:19:16;16.50;50.00
8882;DHT22;4477;48.736;9.176;2023-02-15T13:21:44;18.70;45.30
8882;DHT22;4477;48.736;9.176;2023-02-15T13:24:18;19.20;43.80
8882;DHT22;4477;48.736;9.176;2023-02-15T13:26:47;19.30;42.30
8882;DHT22;4477;48.736;9.176;2023-02-15T13:29:17;19.10;43.50
8882;DHT22;4477;48.736;9.176;2023-02-15T13:31:48;19.50;43.00
8882;DHT22;4477;48.736;9.176;2023-02-15T13:34:18;19.90;42.40
8882;DHT22;4477;48.736;9.176;2023-02-15T13:36:51;19.90;42.70
8882;DHT22;4477;48.736;9.176;2023-02-15T13:39:28;20.10;41.90
8882;DHT22;4477;48.736;9.176;2023-02-15T13:42:01;20.30;41.40
8882;DHT22;4477;48.736;9.176;2023-02-15T13:44:52;19.90;41.00
8882;DHT22;4477;48.736;9.176;2023-02-15T13:47:27;19.50;41.10
8882;DHT22;4477;48.736;9.176;2023-02-15T13:50:08;19.60;41.10
8882;DHT22;4477;48.736;9.176;2023-02-15T13:52:46;19.20;42.50
8882;DHT22;4477;48.736;9.176;2023-02-15T13:55:35;19.20;43.90
8882;DHT22;4477;48.736;9.176;2023-02-15T13:58:27;19.60;42.80
8882;DHT22;4477;48.736;9.176;2023-02-15T14:01:06;20.10;41.50
8882;DHT22;4477;48.736;9.176;2023-02-15T14:06:51;19.80;41.00
8882;DHT22;4477;48.736;9.176;2023-02-15T14:09:32;19.60;39.70
8882;DHT22;4477;48.736;9.176;2023-02-15T14:12:24;19.90;38.80
8882;DHT22;4477;48.736;9.176;2023-02-15T14:15:13;20.20;40.20
8882;DHT22;4477;48.736;9.176;2023-02-15T14:17:55;20.60;38.40
8882;DHT22;4477;48.736;9.176;2023-02-15T14:20:34;20.70;36.80
8882;DHT22;4477;48.736;9.176;2023-02-15T14:23:07;20.80;35.80
8882;DHT22;4477;48.736;9.176;2023-02-15T14:25:40;20.70;36.00
8882;DHT22;4477;48.736;9.176;2023-02-15T14:28:14;20.80;35.10
8882;DHT22;4477;48.736;9.176;2023-02-15T14:30:45;20.90;35.20
8882;DHT22;4477;48.736;9.176;2023-02-15T14:33:29;20.90;34.60
8882;DHT22;4477;48.736;9.176;2023-02-15T14:35:58;21.30;34.80
8882;DHT22;4477;48.736;9.176;2023-02-15T14:38:43;20.50;33.10
8882;DHT22;4477;48.736;9.176;2023-02-15T14:41:16;20.30;35.10
8882;DHT22;4477;48.736;9.176;2023-02-15T14:43:49;20.70;34.10
8882;DHT22;4477;48.736;9.176;2023-02-15T14:46:25;21.20;34.40
8882;DHT22;4477;48.736;9.176;2023-02-15T14:48:58;21.20;34.00
8882;DHT22;4477;48.736;9.176;2023-02-15T14:51:57;21.50;33.20
8882;DHT22;4477;48.736;9.176;2023-02-15T15:31:16;21.30;34.00
8882;DHT22;4477;48.736;9.176;2023-02-15T16:45:38;15.60;38.40
8882;DHT22;4477;48.736;9.176;2023-02-15T16:48:08;4.50;82.50
8882;DHT22;4477;48.736;9.176;2023-02-15T16:50:38;4.20;83.10
8882;DHT22;4477;48.736;9.176;2023-02-15T16:53:14;4.00;82.70
8882;DHT22;4477;48.736;9.176;2023-02-15T16:55:43;3.80;84.80
8882;DHT22;4477;48.736;9.176;2023-02-15T16:58:14;3.60;85.60
8882;DHT22;4477;48.736;9.176;2023-02-15T21:47:27;3.30;87.00
8882;DHT22;4477;48.736;9.176;2023-02-15T21:50:14;-0.80;99.90
8882;DHT22;4477;48.736;9.176;2023-02-15T21:52:58;-0.90;99.90
8882;DHT22;4477;48.736;9.176;2023-02-15T21:55:26;-1.00;99.90
8882;DHT22;4477;48.736;9.176;2023-02-15T21:57:53;-1.10;99.90
8882;DHT22;4477;48.736;9.176;2023-02-15T22:00:22;-0.90;99.90
8882;DHT22;4477;48.736;9.176;2023-02-15T22:02:52;-0.90;99.90
8882;DHT22;4477;48.736;9.176;2023-02-15T22:05:22;-0.70;99.90
8882;DHT22;4477;48.736;9.176;2023-02-15T22:07:50;-0.70;99.90
8882;DHT22;4477;48.736;9.176;2023-02-15T22:10:16;-0.60;99.90
8882;DHT22;4477;48.736;9.176;2023-02-15T22:12:45;-0.80;99.90
8882;DHT22;4477;48.736;9.176;2023-02-15T22:15:17;-0.90;99.90
8882;DHT22;4477;48.736;9.176;2023-02-15T22:17:45;-0.90;99.90
8882;DHT22;4477;48.736;9.176;2023-02-15T22:20:14;-1.00;99.90
8882;DHT22;4477;48.736;9.176;2023-02-15T22:22:43;-1.10;99.90
8882;DHT22;4477;48.736;9.176;2023-02-15T22:25:12;-1.00;99.90
8882;DHT22;4477;48.736;9.176;2023-02-15T22:27:40;-1.10;99.90
8882;DHT22;4477;48.736;9.176;2023-02-15T22:30:18;-1.10;99.90
8882;DHT22;4477;48.736;9.176;2023-02-15T22:32:45;-1.20;99.90
8882;DHT22;4477;48.736;9.176;2023-02-15T22:35:15;-1.20;99.90
8882;DHT22;4477;48.736;9.176;2023-02-15T22:37:42;-1.10;99.90
8882;DHT22;4477;48.736;9.176;2023-02-15T22:40:13;-1.20;99.90
8882;DHT22;4477;48.736;9.176;2023-02-15T22:42:40;-1.20;99.90
8882;DHT22;4477;48.736;9.176;2023-02-15T22:45:16;-1.20;99.90
8882;DHT22;4477;48.736;9.176;2023-02-15T22:47:43;-1.10;99.90
8882;DHT22;4477;48.736;9.176;2023-02-15T22:50:16;-1.10;99.90
8882;DHT22;4477;48.736;9.176;2023-02-15T22:52:44;-1.00;99.90
8882;DHT22;4477;48.736;9.176;2023-02-15T22:55:13;-1.00;99.90
8882;DHT22;4477;48.736;9.176;2023-02-15T22:57:40;-1.10;99.90
8882;DHT22;4477;48.736;9.176;2023-02-15T23:00:08;-1.10;99.90
8882;DHT22;4477;48.736;9.176;2023-02-15T23:02:37;-1.20;99.90
8882;DHT22;4477;48.736;9.176;2023-02-15T23:05:04;-1.40;99.90
8882;DHT22;4477;48.736;9.176;2023-02-15T23:07:31;-1.50;99.90
8882;DHT22;4477;48.736;9.176;2023-02-15T23:09:58;-1.40;99.90
8882;DHT22;4477;48.736;9.176;2023-02-15T23:12:27;-1.40;99.90
8882;DHT22;4477;48.736;9.176;2023-02-15T23:15:16;-1.30;99.90
8882;DHT22;4477;48.736;9.176;2023-02-15T23:17:44;-1.20;99.90
8882;DHT22;4477;48.736;9.176;2023-02-15T23:20:12;-1.10;99.90
8882;DHT22;4477;48.736;9.176;2023-02-15T23:22:40;-1.10;99.90
8882;DHT22;4477;48.736;9.176;2023-02-15T23:25:08;-1.10;99.90
8882;DHT22;4477;48.736;9.176;2023-02-15T23:27:36;-1.20;99.90
8882;DHT22;4477;48.736;9.176;2023-02-15T23:30:20;-1.20;99.90
8882;DHT22;4477;48.736;9.176;2023-02-15T23:32:52;-1.30;99.90
8882;DHT22;4477;48.736;9.176;2023-02-15T23:35:20;-1.30;99.90
8882;DHT22;4477;48.736;9.176;2023-02-15T23:37:46;-1.30;99.90
8882;DHT22;4477;48.736;9.176;2023-02-15T23:40:14;-1.20;99.90
8882;DHT22;4477;48.736;9.176;2023-02-15T23:42:58;-1.30;99.90
8882;DHT22;4477;48.736;9.176;2023-02-15T23:45:25;-1.30;99.90
8882;DHT22;4477;48.736;9.176;2023-02-15T23:47:53;-1.40;99.90
8882;DHT22;4477;48.736;9.176;2023-02-15T23:50:38;-1.50;99.90
8882;DHT22;4477;48.736;9.176;2023-02-15T23:53:05;-1.60;99.90
8882;DHT22;4477;48.736;9.176;2023-02-15T23:55:33;-1.60;99.90
8882;DHT22;4477;48.736;9.176;2023-02-15T23:58:02;-1.70;99.90
